Time;durP1;ratioP1;P1;durP2;ratioP2;P2;SDS_P1;SDS_P2;PMS_P1;PMS_P2;Temp;Humidity;BMP_temperature;BMP_pressure;BME280_temperature;BME280_humidity;BME280_pressure;Samples;Min_cycle;Max_cycle;Signal;HPM_P1;HPM_P2
2023/08/18 00:03:05;;;;;;;11.43;6.30;;;;;;;;;;10353506;28;20033;-79
2023/08/18 00:08:05;;;;;;;9.47;6.60;;;;;;;;;;10348055;28;20117;-80
2023/08/18 00:13:05;;;;;;;8.93;6.47;;;;;;;;;;10346968;28;20045;-80
2023/08/18 00:18:06;;;;;;;10.50;6.30;;;;;;;;;;10343301;28;20047;-79
2023/08/18 00:23:06;;;;;;;9.63;6.97;;;;;;;;;;10348851;28;20045;-80
2023/08/18 00:28:06;;;;;;;9.10;6.70;;;;;;;;;;10329877;28;20443;-81
2023/08/18 00:33:07;;;;;;;10.23;6.78;;;;;;;;;;10345927;28;20092;-79
2023/08/18 00:38:07;;;;;;;9.60;6.75;;;;;;;;;;10327502;28;20132;-79
2023/08/18 00:43:07;;;;;;;8.98;6.20;;;;;;;;;;10349289;28;20072;-81
2023/08/18 00:48:08;;;;;;;8.40;5.83;;;;;;;;;;10345253;28;20480;-79
2023/08/18 00:53:09;;;;;;;8.20;5.00;;;;;;;;;;10353273;28;20044;-80
2023/08/18 00:58:09;;;;;;;7.63;5.47;;;;;;;;;;10354820;28;20073;-80
2023/08/18 01:03:10;;;;;;;9.15;5.18;;;;;;;;;;10352978;28;20326;-79
2023/08/18 01:08:10;;;;;;;8.20;5.80;;;;;;;;;;10346392;28;20081;-80
2023/08/18 01:13:14;;;;;;;7.53;5.33;;;;;;;;;;10346333;28;20049;-81
2023/08/18 01:18:14;;;;;;;7.53;5.03;;;;;;;;;;10328174;28;20439;-79
2023/08/18 01:23:17;;;;;;;7.88;4.88;;;;;;;;;;10350645;28;20033;-81
2023/08/18 01:28:17;;;;;;;6.70;5.13;;;;;;;;;;10359641;28;20072;-80
2023/08/18 01:33:29;;;;;;;6.05;4.70;;;;;;;;;;10345405;28;20048;-79
2023/08/18 01:38:30;;;;;;;6.40;4.93;;;;;;;;;;10356090;28;20157;-80
2023/08/18 01:43:31;;;;;;;9.10;4.95;;;;;;;;;;10355401;28;20038;-80
2023/08/18 01:48:32;;;;;;;6.97;4.70;;;;;;;;;;10353580;28;20064;-79
2023/08/18 01:53:32;;;;;;;8.67;5.20;;;;;;;;;;10352961;28;20049;-81
2023/08/18 01:58:34;;;;;;;4.93;4.43;;;;;;;;;;10333817;28;20069;-79
2023/08/18 02:03:34;;;;;;;6.80;4.87;;;;;;;;;;10330593;28;20054;-77
2023/08/18 02:08:34;;;;;;;6.80;5.23;;;;;;;;;;10334577;28;20319;-77
2023/08/18 02:13:35;;;;;;;8.77;4.75;;;;;;;;;;10351997;28;20040;-83
2023/08/18 02:18:36;;;;;;;6.53;4.63;;;;;;;;;;10334950;28;20061;-83
2023/08/18 02:23:36;;;;;;;5.60;4.57;;;;;;;;;;10336505;28;20049;-83
2023/08/18 02:28:37;;;;;;;7.57;4.60;;;;;;;;;;10335076;28;20048;-83
2023/08/18 02:33:37;;;;;;;6.97;4.50;;;;;;;;;;10353256;28;20896;-78
2023/08/18 02:38:39;;;;;;;6.40;4.60;;;;;;;;;;10349558;28;20046;-78
2023/08/18 02:43:43;;;;;;;7.13;4.57;;;;;;;;;;10347850;28;20033;-79
2023/08/18 02:48:43;;;;;;;4.82;4.35;;;;;;;;;;10350756;28;20676;-80
2023/08/18 02:53:48;;;;;;;7.53;5.03;;;;;;;;;;10346042;28;20042;-80
2023/08/18 02:58:48;;;;;;;6.88;4.95;;;;;;;;;;10328830;28;20345;-80
2023/08/18 03:03:49;;;;;;;5.93;4.90;;;;;;;;;;10343780;28;20042;-79
2023/08/18 03:08:50;;;;;;;6.28;4.03;;;;;;;;;;10327636;28;20456;-80
2023/08/18 03:13:51;;;;;;;6.18;4.60;;;;;;;;;;10341571;28;20431;-79
2023/08/18 03:18:52;;;;;;;5.97;4.50;;;;;;;;;;10347560;28;20111;-79
2023/08/18 03:23:52;;;;;;;6.67;4.63;;;;;;;;;;10343978;28;20046;-80
2023/08/18 03:28:52;;;;;;;5.53;4.50;;;;;;;;;;10344231;28;21165;-79
2023/08/18 03:33:53;;;;;;;6.47;4.13;;;;;;;;;;10344567;28;20315;-77
2023/08/18 03:38:55;;;;;;;4.53;4.07;;;;;;;;;;10329426;28;20459;-78
2023/08/18 03:43:57;;;;;;;4.85;3.83;;;;;;;;;;10327396;28;20038;-79
2023/08/18 03:48:57;;;;;;;4.50;4.10;;;;;;;;;;10330806;28;20875;-78
2023/08/18 03:53:58;;;;;;;8.57;4.18;;;;;;;;;;10346671;28;20042;-79
2023/08/18 03:58:59;;;;;;;4.25;3.85;;;;;;;;;;10327405;28;20041;-82
2023/08/18 04:04:00;;;;;;;4.87;3.93;;;;;;;;;;10349710;28;20034;-80
2023/08/18 04:09:06;;;;;;;7.57;4.43;;;;;;;;;;10329135;28;20704;-81
2023/08/18 04:14:06;;;;;;;6.80;3.80;;;;;;;;;;10340112;28;20566;-80
2023/08/18 04:19:07;;;;;;;5.20;3.93;;;;;;;;;;10326041;28;20135;-80
2023/08/18 04:24:08;;;;;;;9.10;5.83;;;;;;;;;;10306955;28;20625;-79
2023/08/18 04:29:10;;;;;;;6.18;5.00;;;;;;;;;;10340595;28;20049;-78
2023/08/18 04:34:10;;;;;;;5.73;4.67;;;;;;;;;;10346763;28;20068;-77
2023/08/18 04:39:11;;;;;;;5.60;4.68;;;;;;;;;;10354859;28;20053;-77
2023/08/18 04:44:13;;;;;;;5.00;4.50;;;;;;;;;;10352063;28;20057;-77
2023/08/18 04:49:14;;;;;;;10.67;5.27;;;;;;;;;;10355176;28;20066;-77
2023/08/18 04:54:14;;;;;;;4.40;3.97;;;;;;;;;;10337625;28;20033;-77
2023/08/18 04:59:15;;;;;;;4.60;3.88;;;;;;;;;;10355091;28;20057;-78
2023/08/18 05:04:17;;;;;;;5.45;4.38;;;;;;;;;;10337137;28;20033;-79
2023/08/18 05:09:18;;;;;;;5.10;3.95;;;;;;;;;;10344051;28;20050;-79
2023/08/18 05:14:18;;;;;;;7.63;3.72;;;;;;;;;;10342824;28;20046;-79
2023/08/18 05:19:19;;;;;;;3.83;3.28;;;;;;;;;;10335301;28;20491;-77
2023/08/18 05:24:19;;;;;;;5.55;3.40;;;;;;;;;;10334107;28;20046;-77
2023/08/18 05:29:20;;;;;;;6.93;4.80;;;;;;;;;;10354330;28;20029;-80
2023/08/18 05:34:20;;;;;;;5.57;3.97;;;;;;;;;;10355526;28;20065;-80
2023/08/18 05:39:20;;;;;;;4.97;3.50;;;;;;;;;;10353997;28;20312;-78
2023/08/18 05:44:21;;;;;;;7.40;4.03;;;;;;;;;;10336828;28;20460;-80
2023/08/18 05:49:21;;;;;;;4.80;3.27;;;;;;;;;;10335240;28;20117;-79
2023/08/18 05:54:21;;;;;;;7.37;5.17;;;;;;;;;;10357089;28;20379;-79
2023/08/18 05:59:22;;;;;;;6.10;5.10;;;;;;;;;;10349399;28;20129;-80
2023/08/18 06:04:22;;;;;;;10.67;6.13;;;;;;;;;;10358302;28;20050;-79
2023/08/18 06:09:22;;;;;;;7.20;4.70;;;;;;;;;;10349306;28;20039;-80
2023/08/18 06:14:24;;;;;;;7.82;6.13;;;;;;;;;;10341658;28;20531;-81
2023/08/18 06:19:25;;;;;;;6.03;4.67;;;;;;;;;;10343856;28;20116;-81
2023/08/18 06:24:26;;;;;;;7.10;5.50;;;;;;;;;;10344944;28;20045;-82
2023/08/18 06:29:27;;;;;;;6.27;5.00;;;;;;;;;;10341181;28;20058;-83
2023/08/18 06:34:28;;;;;;;6.43;4.30;;;;;;;;;;10349185;28;20045;-82
2023/08/18 06:39:28;;;;;;;4.77;4.00;;;;;;;;;;10370839;28;20078;-80
2023/08/18 06:44:30;;;;;;;4.55;3.65;;;;;;;;;;10337778;28;20038;-82
2023/08/18 06:49:30;;;;;;;5.07;3.85;;;;;;;;;;10355355;28;20052;-83
2023/08/18 06:54:30;;;;;;;10.60;3.60;;;;;;;;;;10362878;28;20048;-83
2023/08/18 06:59:31;;;;;;;5.87;4.13;;;;;;;;;;10352016;28;20040;-78
2023/08/18 07:04:31;;;;;;;4.43;3.20;;;;;;;;;;10349925;28;20042;-79
2023/08/18 07:09:31;;;;;;;3.93;3.13;;;;;;;;;;10334310;28;20489;-79
2023/08/18 07:14:32;;;;;;;4.35;3.28;;;;;;;;;;10361954;28;20622;-85
2023/08/18 07:19:32;;;;;;;3.50;3.20;;;;;;;;;;10355704;28;20169;-82
2023/08/18 07:24:33;;;;;;;4.57;3.47;;;;;;;;;;10372126;28;20285;-84
2023/08/18 07:29:34;;;;;;;4.60;3.57;;;;;;;;;;10378748;28;20034;-78
2023/08/18 07:34:36;;;;;;;3.47;3.17;;;;;;;;;;10357741;28;20065;-77
2023/08/18 07:39:36;;;;;;;4.22;3.47;;;;;;;;;;10352919;28;20053;-77
2023/08/18 07:44:36;;;;;;;3.57;3.27;;;;;;;;;;10350839;28;20049;-77
2023/08/18 07:49:37;;;;;;;4.97;4.00;;;;;;;;;;10347630;28;20077;-78
2023/08/18 07:54:38;;;;;;;4.40;3.53;;;;;;;;;;10350641;28;20550;-78
2023/08/18 07:59:38;;;;;;;4.70;3.77;;;;;;;;;;10346564;28;20112;-78
2023/08/18 08:04:38;;;;;;;6.40;3.93;;;;;;;;;;10352003;28;20540;-78
2023/08/18 08:09:40;;;;;;;4.57;4.10;;;;;;;;;;10358646;28;20782;-80
2023/08/18 08:14:41;;;;;;;4.85;4.00;;;;;;;;;;10363064;28;20137;-80
2023/08/18 08:19:41;;;;;;;5.40;4.28;;;;;;;;;;10375585;28;20054;-84
2023/08/18 08:24:44;;;;;;;5.57;4.85;;;;;;;;;;10350913;28;20045;-85
2023/08/18 08:29:44;;;;;;;4.70;4.20;;;;;;;;;;10349741;28;20407;-85
2023/08/18 08:34:49;;;;;;;5.38;4.63;;;;;;;;;;10395851;28;20053;-86
2023/08/18 08:39:51;;;;;;;5.40;4.90;;;;;;;;;;10389151;28;20049;-84
2023/08/18 08:44:52;;;;;;;4.72;4.32;;;;;;;;;;10419926;28;20077;-85
2023/08/18 08:49:58;;;;;;;4.27;3.87;;;;;;;;;;10416538;28;20059;-85
2023/08/18 08:55:00;;;;;;;5.20;4.60;;;;;;;;;;10403395;28;20055;-85
2023/08/18 09:00:01;;;;;;;5.10;4.63;;;;;;;;;;10413693;28;21221;-84
2023/08/18 09:05:05;;;;;;;4.13;3.80;;;;;;;;;;10442735;28;20407;-85
2023/08/18 09:10:06;;;;;;;15.37;13.77;;;;;;;;;;10445444;28;20044;-84
2023/08/18 09:15:09;;;;;;;5.57;4.95;;;;;;;;;;10405361;28;20031;-83
2023/08/18 09:20:11;;;;;;;5.65;4.50;;;;;;;;;;10441288;28;20053;-86
2023/08/18 09:25:16;;;;;;;4.50;4.10;;;;;;;;;;10414011;28;20516;-84
2023/08/18 09:30:17;;;;;;;6.30;4.78;;;;;;;;;;10407668;28;20044;-86
2023/08/18 09:35:20;;;;;;;5.90;4.53;;;;;;;;;;10431572;28;20037;-84
2023/08/18 09:40:21;;;;;;;4.47;4.00;;;;;;;;;;10434949;28;20049;-82
2023/08/18 09:45:28;;;;;;;4.75;4.13;;;;;;;;;;10414018;28;20048;-84
2023/08/18 09:50:30;;;;;;;4.00;3.60;;;;;;;;;;10399770;28;20067;-83
2023/08/18 09:55:34;;;;;;;6.75;5.30;;;;;;;;;;10407876;28;20640;-84
2023/08/18 10:00:37;;;;;;;4.68;4.20;;;;;;;;;;10377814;28;20130;-81
2023/08/18 10:05:37;;;;;;;4.25;3.85;;;;;;;;;;10410468;28;20044;-82
2023/08/18 10:10:38;;;;;;;4.13;3.72;;;;;;;;;;10404783;28;20029;-81
2023/08/18 10:15:38;;;;;;;4.37;3.93;;;;;;;;;;10389127;28;20037;-84
2023/08/18 10:20:51;;;;;;;4.20;3.80;;;;;;;;;;10405206;28;20052;-82
2023/08/18 10:25:52;;;;;;;4.63;4.22;;;;;;;;;;10400272;28;20040;-81
2023/08/18 10:30:57;;;;;;;4.40;3.77;;;;;;;;;;10405314;28;20052;-83
2023/08/18 10:36:00;;;;;;;4.20;3.80;;;;;;;;;;10431527;28;20592;-81
2023/08/18 10:41:00;;;;;;;10.38;9.27;;;;;;;;;;10411047;28;20064;-76
2023/08/18 10:46:01;;;;;;;4.57;4.17;;;;;;;;;;10401142;28;20073;-79
2023/08/18 10:51:01;;;;;;;4.40;4.00;;;;;;;;;;10396323;28;20037;-76
2023/08/18 10:56:03;;;;;;;3.95;3.55;;;;;;;;;;10393932;28;20521;-80
2023/08/18 11:01:07;;;;;;;3.97;3.67;;;;;;;;;;10396180;28;20092;-78
2023/08/18 11:06:08;;;;;;;4.60;4.18;;;;;;;;;;10386074;28;20037;-78
2023/08/18 11:11:12;;;;;;;4.57;4.10;;;;;;;;;;10386728;28;20550;-84
2023/08/18 11:16:12;;;;;;;4.57;4.15;;;;;;;;;;10400473;28;20036;-84
2023/08/18 11:21:13;;;;;;;4.00;3.70;;;;;;;;;;10394002;28;20037;-76
2023/08/18 11:26:13;;;;;;;4.13;3.67;;;;;;;;;;10394865;28;20111;-77
2023/08/18 11:31:14;;;;;;;4.50;4.10;;;;;;;;;;10392754;28;20037;-77
2023/08/18 11:36:14;;;;;;;4.13;3.73;;;;;;;;;;10394011;28;20029;-77
2023/08/18 11:41:14;;;;;;;4.27;3.80;;;;;;;;;;10399751;28;20068;-77
2023/08/18 11:46:15;;;;;;;4.47;4.07;;;;;;;;;;10406775;28;20829;-77
2023/08/18 11:51:17;;;;;;;4.50;4.10;;;;;;;;;;10400972;28;20380;-76
2023/08/18 11:56:19;;;;;;;4.78;4.38;;;;;;;;;;10398263;28;20045;-77
2023/08/18 12:01:21;;;;;;;;;;;;;;;;;;10403703;28;20047;-75
2023/08/18 12:06:22;;;;;;;5.10;4.00;;;;;;;;;;10399790;28;19921;-75
2023/08/18 12:11:22;;;;;;;4.70;4.20;;;;;;;;;;10387322;28;20737;-79
2023/08/18 12:16:23;;;;;;;4.63;4.20;;;;;;;;;;10376990;28;20034;-79
2023/08/18 12:21:23;;;;;;;4.10;3.80;;;;;;;;;;10392724;28;20041;-78
2023/08/18 12:26:23;;;;;;;4.20;3.80;;;;;;;;;;10389112;28;20026;-78
2023/08/18 12:31:24;;;;;;;4.67;4.20;;;;;;;;;;10389857;28;20772;-76
2023/08/18 12:36:25;;;;;;;4.20;3.90;;;;;;;;;;10406730;28;20041;-76
2023/08/18 12:41:27;;;;;;;4.33;3.93;;;;;;;;;;10407448;28;20049;-78
2023/08/18 12:46:27;;;;;;;4.85;4.03;;;;;;;;;;10408975;28;20561;-78
2023/08/18 12:51:27;;;;;;;5.17;4.63;;;;;;;;;;10415252;28;20056;-76
2023/08/18 12:56:28;;;;;;;4.83;4.43;;;;;;;;;;10409387;28;20045;-78
2023/08/18 13:01:28;;;;;;;4.60;4.20;;;;;;;;;;10387281;28;20041;-77
2023/08/18 13:06:28;;;;;;;4.70;4.30;;;;;;;;;;10403114;28;20080;-78
2023/08/18 13:11:32;;;;;;;5.30;4.80;;;;;;;;;;10404024;28;20468;-75
2023/08/18 13:16:33;;;;;;;6.78;4.90;;;;;;;;;;10403350;28;20046;-76
2023/08/18 13:21:34;;;;;;;4.82;4.43;;;;;;;;;;10408309;28;20075;-77
2023/08/18 13:26:34;;;;;;;5.77;4.50;;;;;;;;;;10408123;28;20339;-79
2023/08/18 13:31:37;;;;;;;5.45;4.95;;;;;;;;;;10407324;28;20060;-80
2023/08/18 13:36:42;;;;;;;5.15;4.65;;;;;;;;;;10375638;28;20070;-83
2023/08/18 13:41:43;;;;;;;4.80;4.40;;;;;;;;;;10397919;28;20392;-79
2023/08/18 13:46:43;;;;;;;6.70;4.70;;;;;;;;;;10403355;28;20029;-80
2023/08/18 13:51:44;;;;;;;5.10;4.17;;;;;;;;;;10390545;28;20048;-82
2023/08/18 13:56:45;;;;;;;;;;;;;;;;;;10390819;28;20046;-78
2023/08/18 14:01:45;;;;;;;4.73;4.33;;;;;;;;;;10385177;28;19924;-80
2023/08/18 14:06:47;;;;;;;4.87;4.47;;;;;;;;;;10380072;28;20312;-80
2023/08/18 14:11:48;;;;;;;4.68;4.28;;;;;;;;;;10383671;28;20108;-80
2023/08/18 14:16:48;;;;;;;4.90;4.20;;;;;;;;;;10374957;28;20084;-81
2023/08/18 14:21:49;;;;;;;4.27;3.97;;;;;;;;;;10384352;28;20537;-80
2023/08/18 14:26:49;;;;;;;4.90;4.40;;;;;;;;;;10370178;28;20045;-79
2023/08/18 14:31:51;;;;;;;4.85;4.38;;;;;;;;;;10383076;28;20510;-79
2023/08/18 14:36:51;;;;;;;4.90;4.50;;;;;;;;;;10369566;28;20057;-80
2023/08/18 14:41:52;;;;;;;4.70;4.30;;;;;;;;;;10379120;28;20049;-79
2023/08/18 14:46:53;;;;;;;4.80;4.40;;;;;;;;;;10392533;28;20059;-79
2023/08/18 14:51:55;;;;;;;5.57;4.20;;;;;;;;;;10399193;28;20712;-79
2023/08/18 14:56:56;;;;;;;4.60;4.20;;;;;;;;;;10389621;28;20305;-80
2023/08/18 15:01:57;;;;;;;4.57;4.17;;;;;;;;;;10390416;28;20558;-79
2023/08/18 15:06:58;;;;;;;4.50;4.10;;;;;;;;;;10369652;28;20045;-75
2023/08/18 15:11:58;;;;;;;4.60;4.20;;;;;;;;;;10385863;28;20038;-79
2023/08/18 15:16:59;;;;;;;4.90;4.50;;;;;;;;;;10370157;28;20046;-77
2023/08/18 15:21:59;;;;;;;4.30;3.90;;;;;;;;;;10386281;28;20152;-78
2023/08/18 15:27:00;;;;;;;;;;;;;;;;;;10387370;28;20041;-77
2023/08/18 15:32:01;;;;;;;5.03;3.80;;;;;;;;;;10371815;28;19917;-78
2023/08/18 15:37:03;;;;;;;4.85;3.78;;;;;;;;;;10388650;28;20049;-78
2023/08/18 15:42:03;;;;;;;5.13;4.20;;;;;;;;;;10395341;28;20041;-78
2023/08/18 15:47:05;;;;;;;4.73;4.33;;;;;;;;;;10377027;28;20103;-79
2023/08/18 15:52:05;;;;;;;4.40;4.00;;;;;;;;;;10394066;28;20079;-79
2023/08/18 15:57:05;;;;;;;4.30;3.90;;;;;;;;;;10370893;28;20107;-79
2023/08/18 16:02:06;;;;;;;5.10;4.17;;;;;;;;;;10386433;28;20103;-78
2023/08/18 16:07:07;;;;;;;4.43;4.03;;;;;;;;;;10389743;28;20164;-77
2023/08/18 16:12:08;;;;;;;5.13;4.53;;;;;;;;;;10399634;28;20064;-79
2023/08/18 16:17:08;;;;;;;4.95;4.45;;;;;;;;;;10390455;28;20858;-80
2023/08/18 16:22:09;;;;;;;4.90;4.40;;;;;;;;;;10376827;28;20076;-80
2023/08/18 16:27:10;;;;;;;4.97;4.47;;;;;;;;;;10393217;28;20041;-78
2023/08/18 16:32:10;;;;;;;5.03;4.53;;;;;;;;;;10395932;28;20564;-78
2023/08/18 16:37:10;;;;;;;4.68;4.28;;;;;;;;;;10396898;28;20473;-78
2023/08/18 16:42:12;;;;;;;5.27;4.63;;;;;;;;;;10400816;28;20041;-80
2023/08/18 16:47:13;;;;;;;5.28;4.78;;;;;;;;;;10383475;28;20175;-78
2023/08/18 16:52:14;;;;;;;4.82;4.28;;;;;;;;;;10396876;28;20042;-80
2023/08/18 16:57:14;;;;;;;4.70;4.23;;;;;;;;;;10393423;28;20038;-80
2023/08/18 17:02:16;;;;;;;4.50;4.10;;;;;;;;;;10374538;28;20060;-80
2023/08/18 17:07:16;;;;;;;6.07;4.38;;;;;;;;;;10374542;28;20049;-78
2023/08/18 17:12:18;;;;;;;5.23;4.83;;;;;;;;;;10391819;28;20064;-79
2023/08/18 17:17:18;;;;;;;5.60;5.10;;;;;;;;;;10383348;28;20122;-77
2023/08/18 17:22:18;;;;;;;5.77;5.27;;;;;;;;;;10389103;28;20042;-79
2023/08/18 17:27:19;;;;;;;5.60;5.07;;;;;;;;;;10397137;28;20038;-80
2023/08/18 17:32:19;;;;;;;5.53;5.03;;;;;;;;;;10389372;28;20606;-79
2023/08/18 17:37:20;;;;;;;6.40;5.77;;;;;;;;;;10374866;28;20041;-78
2023/08/18 17:42:20;;;;;;;5.30;4.80;;;;;;;;;;10398672;28;20116;-78
2023/08/18 17:47:20;;;;;;;5.27;4.77;;;;;;;;;;10393933;28;20029;-79
2023/08/18 17:52:21;;;;;;;6.33;5.73;;;;;;;;;;10395566;28;20056;-80
2023/08/18 17:57:21;;;;;;;7.00;5.17;;;;;;;;;;10395708;28;20808;-79
2023/08/18 18:02:23;;;;;;;6.07;5.47;;;;;;;;;;10393618;28;20049;-79
2023/08/18 18:07:24;;;;;;;5.90;5.20;;;;;;;;;;10391553;28;20058;-80
2023/08/18 18:12:25;;;;;;;5.67;5.17;;;;;;;;;;10399756;28;20030;-78
2023/08/18 18:17:25;;;;;;;6.07;5.23;;;;;;;;;;10392616;28;20040;-78
2023/08/18 18:22:25;;;;;;;5.60;5.00;;;;;;;;;;10391525;28;20059;-78
2023/08/18 18:27:26;;;;;;;7.20;5.50;;;;;;;;;;10380151;28;20057;-78
2023/08/18 18:32:26;;;;;;;6.80;6.20;;;;;;;;;;10393124;28;20136;-78
2023/08/18 18:37:26;;;;;;;7.60;6.67;;;;;;;;;;10393835;28;20037;-78
2023/08/18 18:42:27;;;;;;;7.53;6.80;;;;;;;;;;10395933;28;20049;-79
2023/08/18 18:47:29;;;;;;;7.73;6.93;;;;;;;;;;10398090;28;20041;-79
2023/08/18 18:52:30;;;;;;;7.43;6.72;;;;;;;;;;10391307;28;20041;-77
2023/08/18 18:57:30;;;;;;;8.90;8.00;;;;;;;;;;10398370;28;20042;-79
2023/08/18 19:02:33;;;;;;;8.17;7.43;;;;;;;;;;10383747;28;20103;-78
2023/08/18 19:07:34;;;;;;;8.68;7.78;;;;;;;;;;10382100;28;20080;-78
2023/08/18 19:12:34;;;;;;;9.40;8.15;;;;;;;;;;10382399;28;20056;-78
2023/08/18 19:17:34;;;;;;;9.38;8.40;;;;;;;;;;10380535;28;20046;-79
2023/08/18 19:22:35;;;;;;;9.07;8.18;;;;;;;;;;10390102;28;20037;-78
2023/08/18 19:27:35;;;;;;;9.97;8.87;;;;;;;;;;10388059;28;20041;-78
2023/08/18 19:32:36;;;;;;;10.63;9.23;;;;;;;;;;10388116;28;20276;-78
2023/08/18 19:37:36;;;;;;;9.73;8.80;;;;;;;;;;10394098;28;20126;-79
2023/08/18 19:42:37;;;;;;;9.65;8.70;;;;;;;;;;10372313;28;20037;-79
2023/08/18 19:47:38;;;;;;;10.07;9.07;;;;;;;;;;10391222;28;20037;-79
2023/08/18 19:52:39;;;;;;;10.20;9.20;;;;;;;;;;10389079;28;20049;-79
2023/08/18 19:57:40;;;;;;;10.35;9.35;;;;;;;;;;10387651;28;20040;-79
2023/08/18 20:02:40;;;;;;;11.27;10.18;;;;;;;;;;10392592;28;20029;-79
2023/08/18 20:07:40;;;;;;;10.87;9.77;;;;;;;;;;10392044;28;21151;-79
2023/08/18 20:12:41;;;;;;;11.17;9.97;;;;;;;;;;10391558;28;20299;-79
2023/08/18 20:17:42;;;;;;;11.13;10.03;;;;;;;;;;10403698;28;20057;-78
2023/08/18 20:22:43;;;;;;;13.27;10.13;;;;;;;;;;10383493;28;20239;-79
2023/08/18 20:27:43;;;;;;;11.48;9.95;;;;;;;;;;10393018;28;20628;-81
2023/08/18 20:32:43;;;;;;;10.10;9.10;;;;;;;;;;10389941;28;20044;-80
2023/08/18 20:37:44;;;;;;;11.17;8.70;;;;;;;;;;10384697;28;21095;-79
2023/08/18 20:42:44;;;;;;;11.97;9.43;;;;;;;;;;10394083;28;20068;-80
2023/08/18 20:47:44;;;;;;;10.10;8.90;;;;;;;;;;10399791;28;20044;-78
2023/08/18 20:52:45;;;;;;;11.13;9.33;;;;;;;;;;10395171;28;20914;-81
2023/08/18 20:57:45;;;;;;;10.67;9.60;;;;;;;;;;10396405;28;20046;-79
2023/08/18 21:02:45;;;;;;;12.27;10.33;;;;;;;;;;10399324;28;20390;-78
2023/08/18 21:07:46;;;;;;;10.07;9.17;;;;;;;;;;10395190;28;20456;-78
2023/08/18 21:12:46;;;;;;;10.37;9.30;;;;;;;;;;10393890;28;20033;-80
2023/08/18 21:17:47;;;;;;;10.80;9.70;;;;;;;;;;10377248;28;20555;-77
2023/08/18 21:22:48;;;;;;;12.30;9.97;;;;;;;;;;10393414;28;20037;-79
2023/08/18 21:27:48;;;;;;;11.43;10.25;;;;;;;;;;10394125;28;20311;-78
2023/08/18 21:32:48;;;;;;;10.97;9.87;;;;;;;;;;10375401;28;20041;-77
2023/08/18 21:37:49;;;;;;;10.80;9.70;;;;;;;;;;10396539;28;20299;-78
2023/08/18 21:42:49;;;;;;;11.03;9.93;;;;;;;;;;10400854;28;20056;-78
2023/08/18 21:47:52;;;;;;;12.13;10.77;;;;;;;;;;10387918;28;20052;-78
2023/08/18 21:52:53;;;;;;;11.35;10.25;;;;;;;;;;10391158;28;20053;-78
2023/08/18 21:57:53;;;;;;;11.20;10.10;;;;;;;;;;10371901;28;20073;-77
2023/08/18 22:02:54;;;;;;;12.95;10.65;;;;;;;;;;10381823;28;20073;-77
2023/08/18 22:07:55;;;;;;;12.23;11.03;;;;;;;;;;10385426;28;20038;-79
2023/08/18 22:12:55;;;;;;;11.07;9.97;;;;;;;;;;10377173;28;20099;-78
2023/08/18 22:17:55;;;;;;;11.47;10.37;;;;;;;;;;10384526;28;20669;-78
2023/08/18 22:22:56;;;;;;;12.32;11.02;;;;;;;;;;10390109;28;20502;-78
2023/08/18 22:27:56;;;;;;;12.05;10.45;;;;;;;;;;10382356;28;20547;-77
2023/08/18 22:32:58;;;;;;;13.25;10.45;;;;;;;;;;10384968;28;20993;-77
2023/08/18 22:37:58;;;;;;;12.82;10.77;;;;;;;;;;10382524;28;20049;-76
2023/08/18 22:42:58;;;;;;;12.07;10.73;;;;;;;;;;10390910;28;20556;-76
2023/08/18 22:47:59;;;;;;;13.37;11.97;;;;;;;;;;10388691;28;20041;-77
2023/08/18 22:52:59;;;;;;;12.10;10.83;;;;;;;;;;10389169;28;20068;-77
2023/08/18 22:57:59;;;;;;;13.67;11.73;;;;;;;;;;10368371;28;20045;-75
2023/08/18 23:03:00;;;;;;;12.40;11.07;;;;;;;;;;10382020;28;20030;-74
2023/08/18 23:08:00;;;;;;;12.05;10.85;;;;;;;;;;10380279;28;20060;-78
2023/08/18 23:13:00;;;;;;;12.03;10.83;;;;;;;;;;10366481;28;20056;-77
2023/08/18 23:18:01;;;;;;;13.13;11.53;;;;;;;;;;10379916;28;20077;-76
2023/08/18 23:23:02;;;;;;;12.60;11.20;;;;;;;;;;10387219;28;20046;-75
2023/08/18 23:28:02;;;;;;;13.15;11.43;;;;;;;;;;10389020;28;20317;-76
2023/08/18 23:33:03;;;;;;;12.52;11.23;;;;;;;;;;10388175;28;20157;-74
2023/08/18 23:38:04;;;;;;;12.98;11.57;;;;;;;;;;10368507;28;20041;-74
2023/08/18 23:43:04;;;;;;;12.57;11.27;;;;;;;;;;10393922;28;20081;-74
2023/08/18 23:48:04;;;;;;;12.70;11.40;;;;;;;;;;10387864;28;20076;-76
2023/08/18 23:53:05;;;;;;;12.70;11.40;;;;;;;;;;10390432;28;20072;-76
2023/08/18 23:58:05;;;;;;;13.80;12.33;;;;;;;;;;10379636;28;20041;-77
